createdAt,value
2022-10-12T00:00:14.899Z,100960.25
2022-10-12T00:02:42.501Z,100959.25
2022-10-12T00:05:10.489Z,100961.97
2022-10-12T00:07:40.164Z,100964.28
2022-10-12T00:10:08.781Z,100964.59
2022-10-12T00:12:36.336Z,100961.38
2022-10-12T00:15:04.334Z,100961.09
2022-10-12T00:17:32.043Z,100961.78
2022-10-12T00:19:59.613Z,100965.97
2022-10-12T00:22:27.242Z,100971.97
2022-10-12T00:24:56.203Z,100969.78
2022-10-12T00:27:24.027Z,100965.88
2022-10-12T00:29:51.615Z,100964.69
2022-10-12T00:32:19.376Z,100960.84
2022-10-12T00:34:46.974Z,100969.69
2022-10-12T00:37:14.527Z,100971.38
2022-10-12T00:39:42.149Z,100972.28
2022-10-12T00:42:15.644Z,100960.94
2022-10-12T00:44:45.426Z,100966.19
2022-10-12T00:47:23.270Z,100960.00
2022-10-12T00:49:56.993Z,100965.81
2022-10-12T00:52:32.385Z,100960.50
2022-10-12T00:55:01.245Z,100965.44
2022-10-12T00:57:30.808Z,100963.91
2022-10-12T01:00:02.557Z,100953.75
2022-10-12T01:02:33.811Z,100957.66
2022-10-12T01:05:02.467Z,100954.53
2022-10-12T01:07:30.040Z,100957.94
2022-10-12T01:09:57.663Z,100962.75
2022-10-12T01:12:25.972Z,100964.22
2022-10-12T01:14:55.252Z,100969.69
2022-10-12T01:17:35.768Z,100976.19
2022-10-12T01:20:28.970Z,100967.56
2022-10-12T01:23:09.948Z,100973.03
2022-10-12T01:25:59.889Z,100970.38
2022-10-12T01:28:37.232Z,100967.81
2022-10-12T01:31:14.239Z,100961.38
2022-10-12T01:33:46.328Z,100958.81
2022-10-12T01:36:20.325Z,100956.97
2022-10-12T01:38:54.467Z,100948.03
2022-10-12T01:41:25.574Z,100952.31
2022-10-12T01:43:53.537Z,100956.38
2022-10-12T01:46:53.154Z,100959.03
2022-10-12T01:49:25.795Z,100956.38
2022-10-12T01:52:09.620Z,100959.19
2022-10-12T01:54:49.292Z,100962.13
2022-10-12T01:57:22.551Z,100953.44
2022-10-12T02:00:01.495Z,100941.47
2022-10-12T02:02:40.767Z,100948.53
2022-10-12T02:05:15.690Z,100951.31
2022-10-12T02:07:49.304Z,100948.13
2022-10-12T02:10:22.904Z,100930.91
2022-10-12T02:12:52.598Z,100944.91
2022-10-12T02:15:22.813Z,100941.94
2022-10-12T02:17:53.475Z,100940.78
2022-10-12T02:20:25.708Z,100936.84
2022-10-12T02:22:54.475Z,100932.13
2022-10-12T02:25:25.933Z,100930.69
2022-10-12T02:27:58.631Z,100929.59
2022-10-12T02:30:27.415Z,100926.41
2022-10-12T02:33:04.042Z,100922.41
2022-10-12T02:35:39.365Z,100915.72
2022-10-12T02:38:13.741Z,100919.06
2022-10-12T02:40:48.385Z,100912.22
2022-10-12T02:43:21.379Z,100918.47
2022-10-12T02:45:50.038Z,100912.16
2022-10-12T02:48:23.147Z,100916.66
2022-10-12T02:50:54.907Z,100907.56
2022-10-12T02:53:23.519Z,100914.19
2022-10-12T02:55:52.869Z,100905.28
2022-10-12T02:58:20.790Z,100903.69
2022-10-12T03:00:48.513Z,100905.38
2022-10-12T03:03:16.159Z,100904.53
2022-10-12T03:05:45.157Z,100903.97
2022-10-12T03:08:12.940Z,100909.06
2022-10-12T03:10:40.487Z,100908.00
2022-10-12T03:13:08.083Z,100904.63
2022-10-12T03:15:35.642Z,100907.16
2022-10-12T03:18:03.638Z,100916.50
2022-10-12T03:20:31.153Z,100915.97
2022-10-12T03:23:00.118Z,100922.50
2022-10-12T03:25:30.927Z,100915.94
2022-10-12T03:27:58.473Z,100919.16
2022-10-12T03:30:26.102Z,100918.53
2022-10-12T03:32:53.676Z,100915.78
2022-10-12T03:35:21.252Z,100911.91
2022-10-12T03:37:48.767Z,100915.13
2022-10-12T03:40:17.715Z,100914.88
2022-10-12T03:42:45.619Z,100911.22
2022-10-12T03:45:13.314Z,100915.53
2022-10-12T03:47:41.212Z,100915.09
2022-10-12T03:50:09.833Z,100907.28
2022-10-12T03:52:37.458Z,100910.25
2022-10-12T03:55:05.574Z,100911.78
2022-10-12T03:57:34.542Z,100913.50
2022-10-12T04:00:02.187Z,100906.38
2022-10-12T04:02:29.719Z,100911.16
2022-10-12T04:04:57.297Z,100913.13
2022-10-12T04:07:25.012Z,100916.91
2022-10-12T04:09:52.648Z,100905.69
2022-10-12T04:12:20.306Z,100909.94
2022-10-12T04:14:49.212Z,100911.88
2022-10-12T04:17:17.522Z,100914.81
2022-10-12T04:19:45.448Z,100912.16
2022-10-12T04:22:13.142Z,100914.56
2022-10-12T04:24:40.870Z,100912.78
2022-10-12T04:27:08.508Z,100905.50
2022-10-12T04:29:37.109Z,100912.78
2022-10-12T04:32:11.494Z,100908.41
2022-10-12T04:34:40.143Z,100914.72
2022-10-12T04:37:07.975Z,100910.25
2022-10-12T04:39:35.578Z,100917.53
2022-10-12T04:42:03.402Z,100908.56
2022-10-12T04:44:32.353Z,100913.63
2022-10-12T04:47:00.235Z,100915.56
2022-10-12T04:49:29.203Z,100920.34
2022-10-12T04:51:56.846Z,100925.41
2022-10-12T04:54:25.586Z,100923.69
2022-10-12T04:56:53.230Z,100920.22
2022-10-12T04:59:21.034Z,100926.66
2022-10-12T05:01:48.668Z,100922.59
2022-10-12T05:04:16.292Z,100928.78
2022-10-12T05:06:45.226Z,100932.53
2022-10-12T05:09:16.017Z,100931.00
2022-10-12T05:11:44.706Z,100932.28
2022-10-12T05:14:12.601Z,100930.59
2022-10-12T05:16:40.190Z,100930.44
2022-10-12T05:19:07.783Z,100937.56
2022-10-12T05:21:35.446Z,100929.03
2022-10-12T05:24:04.720Z,100928.88
2022-10-12T05:26:32.312Z,100933.50
2022-10-12T05:29:00.139Z,100930.00
2022-10-12T05:31:27.778Z,100936.47
2022-10-12T05:33:55.370Z,100930.16
2022-10-12T05:36:23.007Z,100929.44
2022-10-12T05:38:50.600Z,100932.69
2022-10-12T05:41:19.855Z,100931.38
2022-10-12T05:43:47.537Z,100927.84
2022-10-12T05:46:15.109Z,100930.78
2022-10-12T05:48:42.720Z,100928.59
2022-10-12T05:51:10.295Z,100929.28
2022-10-12T05:53:37.858Z,100929.41
2022-10-12T05:56:05.957Z,100929.03
2022-10-12T05:58:35.132Z,100925.63
2022-10-12T06:01:07.248Z,100924.44
2022-10-12T06:03:35.690Z,100924.16
2022-10-12T06:06:03.636Z,100928.81
2022-10-12T06:08:32.268Z,100920.66
2022-10-12T06:11:00.268Z,100920.38
2022-10-12T06:13:27.932Z,100921.28
2022-10-12T06:15:57.003Z,100925.47
2022-10-12T06:18:24.612Z,100926.31
2022-10-12T06:21:21.130Z,100926.69
2022-10-12T06:23:41.771Z,100920.00
2022-10-12T06:26:09.335Z,100916.09
2022-10-12T06:28:36.966Z,100923.88
2022-10-12T06:31:06.177Z,100921.63
2022-10-12T06:33:33.759Z,100923.25
2022-10-12T06:36:01.583Z,100925.00
2022-10-12T06:38:29.352Z,100917.47
2022-10-12T06:40:56.909Z,100924.56
2022-10-12T06:43:24.637Z,100926.09
2022-10-12T06:45:52.227Z,100921.81
2022-10-12T06:48:21.120Z,100928.66
2022-10-12T06:50:48.920Z,100939.91
2022-10-12T06:53:16.492Z,100928.94
2022-10-12T06:55:44.134Z,100930.44
2022-10-12T06:58:15.978Z,100933.34
2022-10-12T07:00:43.634Z,100929.28
2022-10-12T07:03:13.439Z,100915.28
2022-10-12T07:05:42.311Z,100925.63
2022-10-12T07:08:10.081Z,100919.25
2022-10-12T07:10:37.641Z,100927.53
2022-10-12T07:13:05.637Z,100928.44
2022-10-12T07:15:33.350Z,100928.03
2022-10-12T07:18:01.090Z,100930.91
2022-10-12T07:20:28.801Z,100920.34
2022-10-12T07:22:57.716Z,100919.19
2022-10-12T07:25:25.418Z,100917.84
2022-10-12T07:27:53.061Z,100916.84
2022-10-12T07:30:20.624Z,100914.94
2022-10-12T07:32:48.554Z,100912.59
2022-10-12T07:35:16.461Z,100917.94
2022-10-12T07:37:43.987Z,100918.06
2022-10-12T07:40:13.030Z,100915.50
2022-10-12T07:42:59.217Z,100906.31
2022-10-12T07:45:29.610Z,100900.25
2022-10-12T07:47:57.443Z,100905.28
2022-10-12T07:50:25.480Z,100895.19
2022-10-12T07:52:53.116Z,100893.16
2022-10-12T07:55:22.001Z,100898.84
2022-10-12T07:57:49.671Z,100892.06
2022-10-12T08:00:17.539Z,100884.34
2022-10-12T08:02:45.172Z,100884.81
2022-10-12T08:05:12.781Z,100888.56
2022-10-12T08:07:41.140Z,100886.09
2022-10-12T08:10:09.514Z,100888.00
2022-10-12T08:12:38.589Z,100888.19
2022-10-12T08:15:06.759Z,100891.53
2022-10-12T08:17:34.420Z,100888.59
2022-10-12T08:20:02.032Z,100889.69
2022-10-12T08:22:29.647Z,100882.88
2022-10-12T08:24:57.249Z,100883.19
2022-10-12T08:27:24.893Z,100872.47
2022-10-12T08:29:53.867Z,100876.72
2022-10-12T08:32:22.156Z,100880.50
2022-10-12T08:34:49.803Z,100878.09
2022-10-12T08:37:17.506Z,100866.22
2022-10-12T08:39:45.191Z,100870.50
2022-10-12T08:42:24.256Z,100876.78
2022-10-12T08:45:23.987Z,100871.25
2022-10-12T08:47:58.261Z,100860.78
2022-10-12T08:50:31.935Z,100864.75
2022-10-12T08:53:05.981Z,100860.47
2022-10-12T08:55:40.831Z,100860.88
2022-10-12T08:58:16.622Z,100866.97
2022-10-12T09:00:49.668Z,100869.44
2022-10-12T09:03:28.812Z,100874.13
2022-10-12T09:06:06.554Z,100874.00
2022-10-12T09:08:50.581Z,100878.03
2022-10-12T09:11:29.804Z,100867.41
2022-10-12T09:14:05.181Z,100874.38
2022-10-12T09:16:37.777Z,100865.56
2022-10-12T09:19:11.030Z,100868.34
2022-10-12T09:21:41.620Z,100866.16
2022-10-12T09:24:16.028Z,100868.31
2022-10-12T09:26:45.662Z,100877.09
2022-10-12T09:29:28.084Z,100868.56
2022-10-12T09:32:12.728Z,100870.81
2022-10-12T09:34:41.026Z,100859.88
2022-10-12T09:37:14.648Z,100872.19
2022-10-12T09:39:42.331Z,100877.41
2022-10-12T09:42:11.174Z,100870.44
2022-10-12T09:44:41.360Z,100865.19
2022-10-12T09:47:27.376Z,100857.13
2022-10-12T09:49:58.810Z,100855.09
2022-10-12T09:52:30.697Z,100859.88
2022-10-12T09:55:03.669Z,100852.72
2022-10-12T09:57:35.465Z,100859.41
2022-10-12T10:00:09.211Z,100858.03
2022-10-12T10:02:49.613Z,100854.06
2022-10-12T10:05:26.272Z,100845.88
2022-10-12T10:07:54.287Z,100848.34
2022-10-12T10:10:29.406Z,100839.44
2022-10-12T10:13:01.109Z,100846.59
2022-10-12T10:15:31.299Z,100848.84
2022-10-12T10:18:01.865Z,100843.25
2022-10-12T10:20:34.951Z,100844.66
2022-10-12T10:23:05.327Z,100844.44
2022-10-12T10:25:34.044Z,100842.56
2022-10-12T10:28:23.207Z,100839.97
2022-10-12T10:30:59.958Z,100846.44
2022-10-12T10:33:30.146Z,100845.34
2022-10-12T10:36:04.591Z,100840.81
2022-10-12T10:38:34.826Z,100845.06
2022-10-12T10:41:07.698Z,100849.31
2022-10-12T10:43:36.789Z,100840.72
2022-10-12T10:46:06.299Z,100847.00
2022-10-12T10:48:53.017Z,100846.94
2022-10-12T10:51:21.085Z,100842.25
2022-10-12T10:53:50.719Z,100844.59
2022-10-12T10:56:25.039Z,100837.81
2022-10-12T10:58:56.308Z,100839.00
2022-10-12T11:01:36.858Z,100827.53
2022-10-12T11:04:10.119Z,100820.88
2022-10-12T11:06:40.831Z,100816.13
2022-10-12T11:09:14.232Z,100819.66
2022-10-12T11:11:44.186Z,100825.22
2022-10-12T11:14:17.039Z,100809.84
2022-10-12T11:16:49.823Z,100816.72
2022-10-12T11:19:29.197Z,100816.75
2022-10-12T11:22:00.392Z,100808.41
2022-10-12T11:24:34.417Z,100810.72
2022-10-12T11:27:08.512Z,100805.09
2022-10-12T11:29:37.686Z,100803.44
2022-10-12T11:32:08.930Z,100802.31
2022-10-12T11:34:46.290Z,100797.44
2022-10-12T11:37:20.578Z,100795.81
2022-10-12T11:39:53.563Z,100780.47
2022-10-12T11:42:32.204Z,100788.91
2022-10-12T11:45:02.734Z,100782.75
2022-10-12T11:47:37.206Z,100775.69
2022-10-12T11:50:16.241Z,100781.41
2022-10-12T11:52:48.366Z,100777.44
2022-10-12T11:55:45.389Z,100777.06
2022-10-12T11:58:24.358Z,100767.50
2022-10-12T12:01:13.897Z,100770.78
2022-10-12T12:04:29.175Z,100765.06
2022-10-12T12:07:02.588Z,100754.03
2022-10-12T12:09:39.654Z,100746.41
2022-10-12T12:12:16.255Z,100753.28
2022-10-12T12:15:03.321Z,100740.16
2022-10-12T12:17:32.658Z,100726.94
2022-10-12T12:20:01.804Z,100721.38
2022-10-12T12:22:53.168Z,100736.59
2022-10-12T12:25:28.891Z,100725.72
2022-10-12T12:27:58.735Z,100731.25
2022-10-12T12:30:37.809Z,100736.81
2022-10-12T12:33:26.204Z,100726.53
2022-10-12T12:35:56.240Z,100721.00
2022-10-12T12:38:28.848Z,100727.78
2022-10-12T12:41:12.490Z,100718.88
2022-10-12T12:43:57.050Z,100722.75
2022-10-12T12:46:44.205Z,100716.47
2022-10-12T12:49:27.887Z,100721.69
2022-10-12T12:51:57.939Z,100719.16
2022-10-12T12:54:28.538Z,100718.00
2022-10-12T12:57:14.494Z,100718.63
2022-10-12T13:00:09.527Z,100720.94
2022-10-12T13:03:15.145Z,100719.16
2022-10-12T13:06:31.210Z,100724.13
2022-10-12T13:09:19.193Z,100723.66
2022-10-12T13:12:22.795Z,100722.13
2022-10-12T13:15:07.990Z,100719.06
2022-10-12T13:17:52.755Z,100712.66
2022-10-12T13:20:23.946Z,100713.47
2022-10-12T13:22:54.520Z,100714.53
2022-10-12T13:25:29.589Z,100713.22
2022-10-12T13:28:01.671Z,100706.84
2022-10-12T13:30:34.526Z,100699.63
2022-10-12T13:33:07.365Z,100698.56
2022-10-12T13:35:39.073Z,100691.22
2022-10-12T13:38:19.639Z,100687.00
2022-10-12T13:40:54.912Z,100689.25
2022-10-12T13:43:33.172Z,100696.56
2022-10-12T13:46:01.254Z,100700.25
2022-10-12T13:48:57.725Z,100693.75
2022-10-12T13:51:24.477Z,100697.06
2022-10-12T13:53:52.347Z,100690.06
2022-10-12T13:56:22.001Z,100684.22
2022-10-12T13:58:52.914Z,100687.19
2022-10-12T14:01:20.555Z,100679.19
2022-10-12T14:03:48.250Z,100673.19
2022-10-12T14:06:28.367Z,100667.97
2022-10-12T14:08:58.107Z,100669.72
2022-10-12T14:11:26.289Z,100666.66
2022-10-12T14:13:56.636Z,100660.88
2022-10-12T14:16:24.316Z,100671.47
2022-10-12T14:18:51.895Z,100667.75
2022-10-12T14:21:23.883Z,100670.72
2022-10-12T14:23:54.359Z,100677.66
2022-10-12T14:26:29.013Z,100679.28
2022-10-12T14:28:59.022Z,100678.59
2022-10-12T14:31:49.744Z,100665.72
2022-10-12T14:34:24.983Z,100664.75
2022-10-12T14:37:01.049Z,100675.50
2022-10-12T14:39:28.954Z,100668.94
2022-10-12T14:42:00.780Z,100670.28
2022-10-12T14:44:30.173Z,100670.63
2022-10-12T14:47:02.499Z,100656.44
2022-10-12T14:49:38.382Z,100652.75
2022-10-12T14:52:08.080Z,100649.69
2022-10-12T14:54:35.582Z,100651.94
2022-10-12T14:57:14.857Z,100639.03
2022-10-12T14:59:43.966Z,100638.00
2022-10-12T15:02:17.361Z,100639.13
2022-10-12T15:04:45.447Z,100646.25
2022-10-12T15:07:16.272Z,100636.78
2022-10-12T15:09:44.432Z,100637.59
2022-10-12T15:12:14.147Z,100640.09
2022-10-12T15:14:42.854Z,100647.94
2022-10-12T15:17:14.528Z,100646.78
2022-10-12T15:19:46.598Z,100655.69
2022-10-12T15:22:17.830Z,100644.69
2022-10-12T15:24:45.434Z,100647.41
2022-10-12T15:27:13.745Z,100647.63
2022-10-12T15:29:41.716Z,100647.72
2022-10-12T15:32:11.709Z,100647.41
2022-10-12T15:34:40.789Z,100645.19
2022-10-12T15:37:09.383Z,100637.38
2022-10-12T15:39:37.614Z,100633.13
2022-10-12T15:42:05.540Z,100633.00
2022-10-12T15:44:39.602Z,100638.31
2022-10-12T15:47:07.188Z,100631.13
2022-10-12T15:49:34.827Z,100638.66
2022-10-12T15:52:03.867Z,100629.06
2022-10-12T15:54:31.494Z,100633.72
2022-10-12T15:56:59.477Z,100632.31
2022-10-12T15:59:27.294Z,100636.09
2022-10-12T16:01:54.929Z,100627.00
2022-10-12T16:04:22.875Z,100621.81
2022-10-12T16:06:50.493Z,100621.63
2022-10-12T16:09:19.567Z,100619.78
2022-10-12T16:11:47.494Z,100625.00
2022-10-12T16:14:15.706Z,100625.63
2022-10-12T16:16:43.576Z,100637.28
2022-10-12T16:19:11.177Z,100631.50
2022-10-12T16:21:39.049Z,100624.00
2022-10-12T16:24:06.827Z,100621.34
2022-10-12T16:26:35.730Z,100631.97
2022-10-12T16:29:03.325Z,100626.19
2022-10-12T16:31:32.096Z,100620.78
2022-10-12T16:33:59.706Z,100629.09
2022-10-12T16:36:27.256Z,100633.47
2022-10-12T16:38:54.893Z,100626.84
2022-10-12T16:41:22.443Z,100626.63
2022-10-12T16:43:51.437Z,100633.06
2022-10-12T16:46:19.074Z,100641.34
2022-10-12T16:48:46.693Z,100646.34
2022-10-12T16:51:14.647Z,100641.56
2022-10-12T16:53:44.742Z,100644.28
2022-10-12T16:56:12.393Z,100648.22
2022-10-12T16:58:41.729Z,100641.34
2022-10-12T17:01:12.752Z,100649.88
2022-10-12T17:03:40.711Z,100646.16
2022-10-12T17:06:10.976Z,100648.03
2022-10-12T17:08:39.894Z,100644.69
2022-10-12T17:11:09.020Z,100644.91
2022-10-12T17:13:38.515Z,100640.16
2022-10-12T17:16:32.911Z,100636.00
2022-10-12T17:19:01.853Z,100640.78
2022-10-12T17:21:29.928Z,100638.91
2022-10-12T17:23:58.219Z,100641.22
2022-10-12T17:26:26.218Z,100636.03
2022-10-12T17:28:54.166Z,100644.31
2022-10-12T17:31:23.475Z,100656.78
2022-10-12T17:33:51.160Z,100650.56
2022-10-12T17:36:23.317Z,100648.06
2022-10-12T17:38:56.723Z,100657.59
2022-10-12T17:41:24.718Z,100658.84
2022-10-12T17:43:52.636Z,100655.53
2022-10-12T17:46:22.943Z,100660.09
2022-10-12T17:48:50.946Z,100654.91
2022-10-12T17:51:19.859Z,100648.88
2022-10-12T17:53:47.404Z,100647.00
2022-10-12T17:56:17.969Z,100647.22
2022-10-12T17:58:45.711Z,100655.50
2022-10-12T18:01:17.037Z,100653.19
2022-10-12T18:03:47.004Z,100662.31
2022-10-12T18:06:16.314Z,100664.81
2022-10-12T18:08:45.457Z,100670.22
2022-10-12T18:11:17.155Z,100666.06
2022-10-12T18:13:49.801Z,100662.72
2022-10-12T18:16:19.234Z,100658.78
2022-10-12T18:18:50.527Z,100658.38
2022-10-12T18:21:20.363Z,100644.88
2022-10-12T18:23:50.547Z,100649.44
2022-10-12T18:26:19.960Z,100649.19
2022-10-12T18:28:48.073Z,100647.34
2022-10-12T18:31:18.619Z,100649.81
2022-10-12T18:33:46.550Z,100649.16
2022-10-12T18:36:17.768Z,100646.66
2022-10-12T18:38:45.521Z,100654.53
2022-10-12T18:41:17.263Z,100654.97
2022-10-12T18:43:44.893Z,100650.38
2022-10-12T18:46:15.276Z,100657.19
2022-10-12T18:48:43.049Z,100647.41
2022-10-12T18:51:17.085Z,100646.13
2022-10-12T18:53:44.780Z,100649.03
2022-10-12T18:56:14.206Z,100655.63
2022-10-12T18:58:42.925Z,100647.75
2022-10-12T19:01:11.962Z,100650.63
2022-10-12T19:03:40.392Z,100651.25
2022-10-12T19:06:10.517Z,100641.03
2022-10-12T19:08:38.510Z,100645.34
2022-10-12T19:11:08.089Z,100646.78
2022-10-12T19:13:37.725Z,100645.66
2022-10-12T19:16:07.995Z,100646.47
2022-10-12T19:18:35.808Z,100650.34
2022-10-12T19:21:05.005Z,100654.44
2022-10-12T19:23:32.857Z,100655.66
2022-10-12T19:26:03.979Z,100653.38
2022-10-12T19:28:31.755Z,100649.66
2022-10-12T19:31:01.136Z,100657.31
2022-10-12T19:33:30.432Z,100654.34
2022-10-12T19:35:58.149Z,100651.16
2022-10-12T19:38:25.998Z,100657.16
2022-10-12T19:40:54.130Z,100652.34
2022-10-12T19:43:21.682Z,100654.78
2022-10-12T19:45:50.486Z,100653.50
2022-10-12T19:48:19.613Z,100654.91
2022-10-12T19:50:47.306Z,100654.47
2022-10-12T19:53:14.972Z,100665.69
2022-10-12T19:55:42.568Z,100665.25
2022-10-12T19:58:10.299Z,100655.94
2022-10-12T20:00:38.204Z,100663.56
2022-10-12T20:03:05.931Z,100660.63
2022-10-12T20:05:35.232Z,100663.50
2022-10-12T20:08:02.856Z,100669.09
2022-10-12T20:10:30.399Z,100658.88
2022-10-12T20:12:58.042Z,100672.31
2022-10-12T20:15:25.670Z,100675.59
2022-10-12T20:17:53.230Z,100677.47
2022-10-12T20:20:21.914Z,100672.84
2022-10-12T20:22:50.894Z,100676.56
2022-10-12T20:25:18.800Z,100672.78
2022-10-12T20:27:46.396Z,100667.53
2022-10-12T20:30:14.433Z,100671.13
2022-10-12T20:32:42.140Z,100678.16
2022-10-12T20:35:10.020Z,100671.47
2022-10-12T20:37:37.651Z,100671.66
2022-10-12T20:40:08.322Z,100665.47
2022-10-12T20:42:36.352Z,100665.47
2022-10-12T20:45:05.088Z,100670.41
2022-10-12T20:47:32.891Z,100666.59
2022-10-12T20:50:00.534Z,100667.63
2022-10-12T20:52:28.312Z,100671.09
2022-10-12T20:54:55.909Z,100662.44
2022-10-12T20:57:25.010Z,100657.38
2022-10-12T20:59:52.624Z,100667.88
2022-10-12T21:02:20.754Z,100658.22
2022-10-12T21:04:50.241Z,100655.97
2022-10-12T21:07:19.412Z,100664.25
2022-10-12T21:09:46.945Z,100670.19
2022-10-12T21:12:14.531Z,100671.31
2022-10-12T21:14:43.582Z,100667.06
2022-10-12T21:17:11.115Z,100673.16
2022-10-12T21:19:38.712Z,100685.22
2022-10-12T21:22:06.496Z,100674.09
2022-10-12T21:24:34.103Z,100671.31
2022-10-12T21:27:01.660Z,100660.81
2022-10-12T21:29:29.296Z,100659.44
2022-10-12T21:31:58.245Z,100655.44
2022-10-12T21:34:25.800Z,100649.44
2022-10-12T21:36:53.372Z,100665.28
2022-10-12T21:39:20.955Z,100667.78
2022-10-12T21:41:48.571Z,100670.28
2022-10-12T21:44:16.225Z,100671.31
2022-10-12T21:46:43.858Z,100676.09
2022-10-12T21:49:12.918Z,100669.72
2022-10-12T21:51:40.751Z,100670.72
2022-10-12T21:54:08.628Z,100658.31
2022-10-12T21:56:37.409Z,100664.06
2022-10-12T21:59:06.716Z,100656.69
2022-10-12T22:01:36.385Z,100648.81
2022-10-12T22:04:06.170Z,100653.00
2022-10-12T22:06:35.809Z,100651.41
2022-10-12T22:09:07.191Z,100653.44
2022-10-12T22:11:37.305Z,100661.78
2022-10-12T22:14:08.234Z,100646.56
2022-10-12T22:16:37.220Z,100652.69
2022-10-12T22:19:06.973Z,100646.38
2022-10-12T22:21:36.719Z,100652.75
2022-10-12T22:24:04.486Z,100655.00
2022-10-12T22:26:32.416Z,100647.78
2022-10-12T22:29:01.141Z,100646.25
2022-10-12T22:31:28.833Z,100646.81
2022-10-12T22:33:57.187Z,100644.41
2022-10-12T22:36:24.776Z,100647.78
2022-10-12T22:38:53.671Z,100649.72
2022-10-12T22:41:22.901Z,100651.72
2022-10-12T22:43:51.900Z,100643.22
2022-10-12T22:46:20.969Z,100651.81
2022-10-12T22:48:49.384Z,100648.78
2022-10-12T22:51:21.473Z,100652.97
2022-10-12T22:53:49.827Z,100656.41
2022-10-12T22:56:19.580Z,100652.34
2022-10-12T22:58:48.750Z,100648.47
2022-10-12T23:01:18.383Z,100641.28
2022-10-12T23:03:46.150Z,100640.91
2022-10-12T23:06:15.405Z,100648.47
2022-10-12T23:08:43.310Z,100641.97
2022-10-12T23:11:13.256Z,100638.50
2022-10-12T23:13:42.792Z,100645.06
2022-10-12T23:16:12.483Z,100649.09
2022-10-12T23:18:40.366Z,100652.00
2022-10-12T23:21:09.620Z,100650.03
2022-10-12T23:23:38.777Z,100658.06
2022-10-12T23:26:08.808Z,100657.41
2022-10-12T23:28:37.060Z,100655.38
2022-10-12T23:31:07.574Z,100652.53
2022-10-12T23:33:35.435Z,100649.66
2022-10-12T23:36:05.847Z,100643.63
2022-10-12T23:38:34.944Z,100639.78
2022-10-12T23:41:02.887Z,100646.69
2022-10-12T23:43:30.450Z,100638.31
2022-10-12T23:45:58.338Z,100637.59
2022-10-12T23:48:28.129Z,100637.72
2022-10-12T23:50:55.757Z,100636.41
2022-10-12T23:53:24.871Z,100629.63
2022-10-12T23:55:53.466Z,100627.81
2022-10-12T23:58:22.246Z,100628.81
